sensor_id;sensor_type;location;lat;lon;timestamp;temperature;humidity
18807;DHT22;9531;52.030;4.380;2022-12-18T00:04:51;-0.50;1.00
18807;DHT22;9531;52.030;4.380;2022-12-18T00:09:45;-2.40;99.90
18807;DHT22;9531;52.030;4.380;2022-12-18T00:17:10;-2.40;99.90
18807;DHT22;9531;52.030;4.380;2022-12-18T00:19:37;-0.20;1.00
18807;DHT22;9531;52.030;4.380;2022-12-18T00:34:22;-2.30;99.90
18807;DHT22;9531;52.030;4.380;2022-12-18T00:39:16;-1.00;1.00
18807;DHT22;9531;52.030;4.380;2022-12-18T00:49:23;-2.50;99.90
18807;DHT22;9531;52.030;4.380;2022-12-18T00:59:17;-2.50;99.90
18807;DHT22;9531;52.030;4.380;2022-12-18T01:01:45;-2.70;99.90
18807;DHT22;9531;52.030;4.380;2022-12-18T01:06:41;-2.50;99.90
18807;DHT22;9531;52.030;4.380;2022-12-18T01:23:55;1.40;1.00
18807;DHT22;9531;52.030;4.380;2022-12-18T01:26:23;-2.50;99.90
18807;DHT22;9531;52.030;4.380;2022-12-18T01:31:20;-2.50;99.90
18807;DHT22;9531;52.030;4.380;2022-12-18T01:36:18;-2.60;99.90
18807;DHT22;9531;52.030;4.380;2022-12-18T01:38:46;0.70;1.00
18807;DHT22;9531;52.030;4.380;2022-12-18T01:41:16;-2.60;99.90
18807;DHT22;9531;52.030;4.380;2022-12-18T01:43:47;-2.20;1.00
18807;DHT22;9531;52.030;4.380;2022-12-18T01:46:16;-2.60;99.90
18807;DHT22;9531;52.030;4.380;2022-12-18T01:48:44;-2.60;99.90
18807;DHT22;9531;52.030;4.380;2022-12-18T01:51:13;-2.60;99.90
18807;DHT22;9531;52.030;4.380;2022-12-18T01:53:41;-2.60;99.90
18807;DHT22;9531;52.030;4.380;2022-12-18T01:56:11;-2.70;99.90
18807;DHT22;9531;52.030;4.380;2022-12-18T01:58:46;-2.70;99.90
18807;DHT22;9531;52.030;4.380;2022-12-18T02:03:42;-2.70;99.90
18807;DHT22;9531;52.030;4.380;2022-12-18T02:06:15;-2.70;99.90
18807;DHT22;9531;52.030;4.380;2022-12-18T02:08:53;-2.70;99.90
18807;DHT22;9531;52.030;4.380;2022-12-18T02:11:32;-2.90;99.90
18807;DHT22;9531;52.030;4.380;2022-12-18T02:14:12;-2.70;99.90
18807;DHT22;9531;52.030;4.380;2022-12-18T02:16:46;-2.80;99.90
18807;DHT22;9531;52.030;4.380;2022-12-18T02:19:40;-2.80;99.90
18807;DHT22;9531;52.030;4.380;2022-12-18T02:22:27;-2.80;99.90
18807;DHT22;9531;52.030;4.380;2022-12-18T02:25:04;-2.80;99.90
18807;DHT22;9531;52.030;4.380;2022-12-18T02:27:35;-2.80;99.90
18807;DHT22;9531;52.030;4.380;2022-12-18T02:30:06;-3.00;99.90
18807;DHT22;9531;52.030;4.380;2022-12-18T02:32:35;-2.80;99.90
18807;DHT22;9531;52.030;4.380;2022-12-18T02:35:06;-2.80;99.90
18807;DHT22;9531;52.030;4.380;2022-12-18T02:37:34;-2.80;99.90
18807;DHT22;9531;52.030;4.380;2022-12-18T02:40:04;-2.90;99.90
18807;DHT22;9531;52.030;4.380;2022-12-18T02:42:33;-3.00;99.90
18807;DHT22;9531;52.030;4.380;2022-12-18T02:45:00;-2.30;1.00
18807;DHT22;9531;52.030;4.380;2022-12-18T02:47:30;-3.90;1.00
18807;DHT22;9531;52.030;4.380;2022-12-18T02:50:07;-3.10;99.90
18807;DHT22;9531;52.030;4.380;2022-12-18T02:52:41;-3.10;99.90
18807;DHT22;9531;52.030;4.380;2022-12-18T02:55:18;-3.10;99.90
18807;DHT22;9531;52.030;4.380;2022-12-18T02:57:52;-3.10;99.90
18807;DHT22;9531;52.030;4.380;2022-12-18T03:00:22;-6.80;1.00
18807;DHT22;9531;52.030;4.380;2022-12-18T03:02:54;-6.40;1.00
18807;DHT22;9531;52.030;4.380;2022-12-18T03:05:27;-3.30;99.90
18807;DHT22;9531;52.030;4.380;2022-12-18T03:07:58;-3.20;99.90
18807;DHT22;9531;52.030;4.380;2022-12-18T03:10:30;-3.30;99.90
18807;DHT22;9531;52.030;4.380;2022-12-18T03:13:02;-3.30;99.90
18807;DHT22;9531;52.030;4.380;2022-12-18T03:15:33;-3.30;99.90
18807;DHT22;9531;52.030;4.380;2022-12-18T03:18:04;-3.30;99.90
18807;DHT22;9531;52.030;4.380;2022-12-18T03:20:35;-7.50;1.00
18807;DHT22;9531;52.030;4.380;2022-12-18T03:23:07;-2.00;1.00
18807;DHT22;9531;52.030;4.380;2022-12-18T03:25:38;-3.40;99.90
18807;DHT22;9531;52.030;4.380;2022-12-18T03:28:09;-3.40;99.90
18807;DHT22;9531;52.030;4.380;2022-12-18T03:30:40;-3.50;99.90
18807;DHT22;9531;52.030;4.380;2022-12-18T03:33:10;-4.90;1.00
18807;DHT22;9531;52.030;4.380;2022-12-18T03:35:41;-3.50;99.90
18807;DHT22;9531;52.030;4.380;2022-12-18T03:38:09;-3.50;99.90
18807;DHT22;9531;52.030;4.380;2022-12-18T03:40:45;-3.60;99.90
18807;DHT22;9531;52.030;4.380;2022-12-18T03:43:20;-3.60;99.90
18807;DHT22;9531;52.030;4.380;2022-12-18T03:45:53;-5.10;1.00
18807;DHT22;9531;52.030;4.380;2022-12-18T03:48:27;-3.60;99.90
18807;DHT22;9531;52.030;4.380;2022-12-18T03:50:57;-3.60;99.90
18807;DHT22;9531;52.030;4.380;2022-12-18T03:53:34;-3.60;99.90
18807;DHT22;9531;52.030;4.380;2022-12-18T03:56:04;-3.50;99.90
18807;DHT22;9531;52.030;4.380;2022-12-18T03:58:34;-3.70;99.90
18807;DHT22;9531;52.030;4.380;2022-12-18T04:01:05;-3.60;99.90
18807;DHT22;9531;52.030;4.380;2022-12-18T04:03:36;-3.60;99.90
18807;DHT22;9531;52.030;4.380;2022-12-18T04:06:05;-1.80;1.00
18807;DHT22;9531;52.030;4.380;2022-12-18T04:08:32;-3.60;99.90
18807;DHT22;9531;52.030;4.380;2022-12-18T04:13:29;-3.60;99.90
18807;DHT22;9531;52.030;4.380;2022-12-18T04:15:58;-3.60;99.90
18807;DHT22;9531;52.030;4.380;2022-12-18T04:18:26;-6.20;1.00
18807;DHT22;9531;52.030;4.380;2022-12-18T04:28:14;-8.00;1.00
18807;DHT22;9531;52.030;4.380;2022-12-18T04:30:41;-8.10;1.00
18807;DHT22;9531;52.030;4.380;2022-12-18T04:33:10;-2.10;1.00
18807;DHT22;9531;52.030;4.380;2022-12-18T04:35:38;-3.80;99.90
18807;DHT22;9531;52.030;4.380;2022-12-18T04:38:05;-9.60;1.00
18807;DHT22;9531;52.030;4.380;2022-12-18T04:40:34;-3.90;99.90
18807;DHT22;9531;52.030;4.380;2022-12-18T04:43:02;-8.10;1.00
18807;DHT22;9531;52.030;4.380;2022-12-18T04:45:29;-10.10;1.00
18807;DHT22;9531;52.030;4.380;2022-12-18T04:47:57;-3.90;99.90
18807;DHT22;9531;52.030;4.380;2022-12-18T04:50:25;-3.90;99.90
18807;DHT22;9531;52.030;4.380;2022-12-18T04:57:49;-4.60;1.00
18807;DHT22;9531;52.030;4.380;2022-12-18T05:07:40;-0.50;1.00
18807;DHT22;9531;52.030;4.380;2022-12-18T05:10:07;-4.30;99.90
18807;DHT22;9531;52.030;4.380;2022-12-18T05:22:45;-4.40;99.90
18807;DHT22;9531;52.030;4.380;2022-12-18T05:27:41;-4.60;99.90
18807;DHT22;9531;52.030;4.380;2022-12-18T05:30:10;-1.90;1.00
18807;DHT22;9531;52.030;4.380;2022-12-18T05:32:37;-2.20;1.00
18807;DHT22;9531;52.030;4.380;2022-12-18T05:35:06;-0.70;1.00
18807;DHT22;9531;52.030;4.380;2022-12-18T05:37:33;-4.60;99.90
18807;DHT22;9531;52.030;4.380;2022-12-18T05:40:03;-4.60;99.90
18807;DHT22;9531;52.030;4.380;2022-12-18T05:42:30;-4.60;99.90
18807;DHT22;9531;52.030;4.380;2022-12-18T05:57:15;-4.70;99.90
18807;DHT22;9531;52.030;4.380;2022-12-18T06:14:27;-4.80;99.90
18807;DHT22;9531;52.030;4.380;2022-12-18T06:19:21;-6.90;1.00
18807;DHT22;9531;52.030;4.380;2022-12-18T06:24:18;-4.90;99.90
18807;DHT22;9531;52.030;4.380;2022-12-18T06:31:41;-4.90;99.90
18807;DHT22;9531;52.030;4.380;2022-12-18T06:34:08;-7.00;1.00
18807;DHT22;9531;52.030;4.380;2022-12-18T06:43:57;-5.00;99.90
18807;DHT22;9531;52.030;4.380;2022-12-18T06:48:53;-5.10;99.90
18807;DHT22;9531;52.030;4.380;2022-12-18T06:51:21;-5.10;99.90
18807;DHT22;9531;52.030;4.380;2022-12-18T06:56:15;-9.40;1.00
18807;DHT22;9531;52.030;4.380;2022-12-18T07:01:11;-7.30;1.00
18807;DHT22;9531;52.030;4.380;2022-12-18T07:03:39;-5.10;99.90
18807;DHT22;9531;52.030;4.380;2022-12-18T07:06:13;-5.10;99.90
18807;DHT22;9531;52.030;4.380;2022-12-18T07:11:11;-5.10;99.90
18807;DHT22;9531;52.030;4.380;2022-12-18T07:13:40;-10.30;1.00
18807;DHT22;9531;52.030;4.380;2022-12-18T07:16:08;-5.10;99.90
18807;DHT22;9531;52.030;4.380;2022-12-18T07:21:09;-5.50;1.00
18807;DHT22;9531;52.030;4.380;2022-12-18T07:23:36;-4.10;1.00
18807;DHT22;9531;52.030;4.380;2022-12-18T07:26:04;-5.10;99.90
18807;DHT22;9531;52.030;4.380;2022-12-18T07:28:32;-5.20;99.90
18807;DHT22;9531;52.030;4.380;2022-12-18T07:31:02;-9.60;99.90
18807;DHT22;9531;52.030;4.380;2022-12-18T07:33:29;-5.10;99.90
18807;DHT22;9531;52.030;4.380;2022-12-18T07:35:56;-6.00;1.00
18807;DHT22;9531;52.030;4.380;2022-12-18T07:38:26;-5.10;99.90
18807;DHT22;9531;52.030;4.380;2022-12-18T07:45:49;-8.30;1.00
18807;DHT22;9531;52.030;4.380;2022-12-18T07:50:44;-5.10;99.90
18807;DHT22;9531;52.030;4.380;2022-12-18T07:53:14;-10.50;1.00
18807;DHT22;9531;52.030;4.380;2022-12-18T07:55:42;-5.10;99.90
18807;DHT22;9531;52.030;4.380;2022-12-18T08:05:32;-5.10;99.90
18807;DHT22;9531;52.030;4.380;2022-12-18T08:10:27;-6.90;1.00
18807;DHT22;9531;52.030;4.380;2022-12-18T08:12:55;-5.10;99.90
18807;DHT22;9531;52.030;4.380;2022-12-18T08:15:23;-5.10;99.90
18807;DHT22;9531;52.030;4.380;2022-12-18T08:27:40;-5.10;99.90
18807;DHT22;9531;52.030;4.380;2022-12-18T08:30:10;-5.00;99.90
18807;DHT22;9531;52.030;4.380;2022-12-18T08:35:05;-5.00;99.90
18807;DHT22;9531;52.030;4.380;2022-12-18T08:42:28;-6.90;1.00
18807;DHT22;9531;52.030;4.380;2022-12-18T08:45:14;-4.90;99.90
18807;DHT22;9531;52.030;4.380;2022-12-18T08:50:09;-4.90;99.90
18807;DHT22;9531;52.030;4.380;2022-12-18T08:55:05;-4.80;99.90
18807;DHT22;9531;52.030;4.380;2022-12-18T09:02:28;-4.70;99.90
18807;DHT22;9531;52.030;4.380;2022-12-18T09:17:12;-4.50;99.90
18807;DHT22;9531;52.030;4.380;2022-12-18T09:19:40;-4.40;99.90
18807;DHT22;9531;52.030;4.380;2022-12-18T09:27:02;-0.70;1.00
18807;DHT22;9531;52.030;4.380;2022-12-18T09:36:53;-6.90;1.00
18807;DHT22;9531;52.030;4.380;2022-12-18T10:11:14;15.90;99.90
18807;DHT22;9531;52.030;4.380;2022-12-18T10:13:44;9.10;99.90
18807;DHT22;9531;52.030;4.380;2022-12-18T10:16:13;4.10;99.90
18807;DHT22;9531;52.030;4.380;2022-12-18T10:21:24;-0.20;99.90
18807;DHT22;9531;52.030;4.380;2022-12-18T10:26:23;-1.90;99.90
18807;DHT22;9531;52.030;4.380;2022-12-18T15:52:15;-1.50;1.00
18807;DHT22;9531;52.030;4.380;2022-12-18T15:54:51;0.10;99.90
18807;DHT22;9531;52.030;4.380;2022-12-18T15:57:47;2.50;1.00
18807;DHT22;9531;52.030;4.380;2022-12-18T16:00:14;1.80;99.90
18807;DHT22;9531;52.030;4.380;2022-12-18T16:02:41;1.00;99.90
18807;DHT22;9531;52.030;4.380;2022-12-18T16:05:09;0.50;99.90
18807;DHT22;9531;52.030;4.380;2022-12-18T16:07:40;0.10;99.90
18807;DHT22;9531;52.030;4.380;2022-12-18T16:10:07;-0.10;99.90
18807;DHT22;9531;52.030;4.380;2022-12-18T16:12:33;-0.20;99.90
18807;DHT22;9531;52.030;4.380;2022-12-18T16:15:02;-0.30;99.90
18807;DHT22;9531;52.030;4.380;2022-12-18T16:17:29;-0.40;99.90
18807;DHT22;9531;52.030;4.380;2022-12-18T16:19:56;-0.50;99.90
18807;DHT22;9531;52.030;4.380;2022-12-18T16:22:23;-0.60;99.90
18807;DHT22;9531;52.030;4.380;2022-12-18T16:24:51;-0.60;99.90
18807;DHT22;9531;52.030;4.380;2022-12-18T16:27:19;-0.60;99.90
18807;DHT22;9531;52.030;4.380;2022-12-18T16:29:46;-0.70;99.90
18807;DHT22;9531;52.030;4.380;2022-12-18T16:32:15;-0.70;99.90
18807;DHT22;9531;52.030;4.380;2022-12-18T16:34:42;-0.70;99.90
18807;DHT22;9531;52.030;4.380;2022-12-18T16:37:10;-0.70;99.90
18807;DHT22;9531;52.030;4.380;2022-12-18T16:39:38;-0.70;99.90
18807;DHT22;9531;52.030;4.380;2022-12-18T16:42:06;-0.70;99.90
18807;DHT22;9531;52.030;4.380;2022-12-18T16:44:34;-0.70;99.90
18807;DHT22;9531;52.030;4.380;2022-12-18T16:47:01;-0.70;99.90
18807;DHT22;9531;52.030;4.380;2022-12-18T16:49:29;-0.70;99.90
18807;DHT22;9531;52.030;4.380;2022-12-18T16:51:56;-0.70;99.90
18807;DHT22;9531;52.030;4.380;2022-12-18T16:54:29;-0.70;99.90
18807;DHT22;9531;52.030;4.380;2022-12-18T16:56:55;-0.70;99.90
18807;DHT22;9531;52.030;4.380;2022-12-18T16:59:22;-0.70;99.90
18807;DHT22;9531;52.030;4.380;2022-12-18T17:01:50;-0.70;99.90
18807;DHT22;9531;52.030;4.380;2022-12-18T17:04:17;-0.70;99.90
18807;DHT22;9531;52.030;4.380;2022-12-18T17:06:45;-0.80;99.90
18807;DHT22;9531;52.030;4.380;2022-12-18T17:09:16;-0.70;99.90
18807;DHT22;9531;52.030;4.380;2022-12-18T17:11:43;-0.70;99.90
18807;DHT22;9531;52.030;4.380;2022-12-18T17:14:11;-0.70;99.90
18807;DHT22;9531;52.030;4.380;2022-12-18T17:16:38;-0.70;99.90
18807;DHT22;9531;52.030;4.380;2022-12-18T17:19:05;-0.70;99.90
18807;DHT22;9531;52.030;4.380;2022-12-18T17:21:32;-0.70;99.90
18807;DHT22;9531;52.030;4.380;2022-12-18T17:24:00;-0.70;99.90
18807;DHT22;9531;52.030;4.380;2022-12-18T17:26:27;-0.70;99.90
18807;DHT22;9531;52.030;4.380;2022-12-18T17:28:55;-0.70;99.90
18807;DHT22;9531;52.030;4.380;2022-12-18T17:31:22;-0.70;99.90
18807;DHT22;9531;52.030;4.380;2022-12-18T17:33:49;-0.70;99.90
18807;DHT22;9531;52.030;4.380;2022-12-18T17:36:16;-0.70;99.90
18807;DHT22;9531;52.030;4.380;2022-12-18T17:38:48;-0.60;99.90
18807;DHT22;9531;52.030;4.380;2022-12-18T17:41:16;-0.70;99.90
18807;DHT22;9531;52.030;4.380;2022-12-18T17:43:44;-0.70;99.90
18807;DHT22;9531;52.030;4.380;2022-12-18T17:46:15;-0.60;99.90
18807;DHT22;9531;52.030;4.380;2022-12-18T17:48:42;-0.60;99.90
18807;DHT22;9531;52.030;4.380;2022-12-18T17:51:09;-0.60;99.90
18807;DHT22;9531;52.030;4.380;2022-12-18T17:53:36;-0.60;99.90
18807;DHT22;9531;52.030;4.380;2022-12-18T17:56:03;-0.60;99.90
18807;DHT22;9531;52.030;4.380;2022-12-18T17:58:32;-0.60;99.90
18807;DHT22;9531;52.030;4.380;2022-12-18T18:00:59;-0.60;99.90
18807;DHT22;9531;52.030;4.380;2022-12-18T18:03:26;-0.60;99.90
18807;DHT22;9531;52.030;4.380;2022-12-18T18:05:53;-0.60;99.90
18807;DHT22;9531;52.030;4.380;2022-12-18T18:08:20;-0.50;99.90
18807;DHT22;9531;52.030;4.380;2022-12-18T18:10:47;-0.50;99.90
18807;DHT22;9531;52.030;4.380;2022-12-18T18:13:16;-0.50;99.90
18807;DHT22;9531;52.030;4.380;2022-12-18T18:16:02;-0.50;99.90
18807;DHT22;9531;52.030;4.380;2022-12-18T19:27:37;20.30;99.90
18807;DHT22;9531;52.030;4.380;2022-12-18T19:30:05;20.20;99.90
18807;DHT22;9531;52.030;4.380;2022-12-18T19:32:32;20.20;99.90
18807;DHT22;9531;52.030;4.380;2022-12-18T19:44:50;20.10;99.90
18807;DHT22;9531;52.030;4.380;2022-12-18T20:02:05;19.80;99.90
18807;DHT22;9531;52.030;4.380;2022-12-18T20:19:16;19.70;99.90
18807;DHT22;9531;52.030;4.380;2022-12-18T20:36:27;19.70;99.90
18807;DHT22;9531;52.030;4.380;2022-12-18T20:41:22;19.80;99.90
18807;DHT22;9531;52.030;4.380;2022-12-18T20:46:16;19.70;99.90
18807;DHT22;9531;52.030;4.380;2022-12-18T20:51:12;19.70;99.90
18807;DHT22;9531;52.030;4.380;2022-12-18T20:53:41;20.30;99.90
18807;DHT22;9531;52.030;4.380;2022-12-18T20:56:09;19.70;99.90
18807;DHT22;9531;52.030;4.380;2022-12-18T21:01:05;19.70;99.90
18807;DHT22;9531;52.030;4.380;2022-12-18T21:06:03;19.80;99.90
18807;DHT22;9531;52.030;4.380;2022-12-18T21:11:11;20.00;99.90
18807;DHT22;9531;52.030;4.380;2022-12-18T21:26:20;19.70;99.90
18807;DHT22;9531;52.030;4.380;2022-12-18T21:36:09;19.80;99.90
18807;DHT22;9531;52.030;4.380;2022-12-18T21:41:06;19.80;99.90
18807;DHT22;9531;52.030;4.380;2022-12-18T21:43:36;19.70;99.90
18807;DHT22;9531;52.030;4.380;2022-12-18T22:01:01;19.70;99.90
18807;DHT22;9531;52.030;4.380;2022-12-18T22:05:56;20.00;99.90
18807;DHT22;9531;52.030;4.380;2022-12-18T22:18:13;19.60;99.90
18807;DHT22;9531;52.030;4.380;2022-12-18T22:33:16;19.60;99.90
18807;DHT22;9531;52.030;4.380;2022-12-18T22:50:27;19.60;99.90
18807;DHT22;9531;52.030;4.380;2022-12-18T22:57:51;19.60;99.90
18807;DHT22;9531;52.030;4.380;2022-12-18T23:07:41;19.60;99.90
18807;DHT22;9531;52.030;4.380;2022-12-18T23:10:08;19.60;99.90
18807;DHT22;9531;52.030;4.380;2022-12-18T23:24:53;19.50;99.90
18807;DHT22;9531;52.030;4.380;2022-12-18T23:29:48;19.50;99.90
18807;DHT22;9531;52.030;4.380;2022-12-18T23:42:05;19.50;99.90
18807;DHT22;9531;52.030;4.380;2022-12-18T23:47:02;19.50;99.90
18807;DHT22;9531;52.030;4.380;2022-12-18T23:59:21;19.40;99.90
